Time;durP1;ratioP1;P1;durP2;ratioP2;P2;SDS_P1;SDS_P2;PMS_P1;PMS_P2;Temp;Humidity;BMP_temperature;BMP_pressure;BME280_temperature;BME280_humidity;BME280_pressure;Samples;Min_cycle;Max_cycle;Signal;HPM_P1;HPM_P2
2023/07/17 00:02:09;;;;;;;5.03;4.53;;;;;;;;;;5082001;28;20693;-66
2023/07/17 00:04:38;;;;;;;7.80;4.60;;;;;;;;;;5081035;28;20694;-64
2023/07/17 00:07:07;;;;;;;4.17;3.87;;;;;;;;;;5082113;28;20684;-65
2023/07/17 00:09:35;;;;;;;5.80;4.40;;;;;;;;;;5078791;28;20747;-65
2023/07/17 00:12:04;;;;;;;5.80;4.30;;;;;;;;;;5082205;28;20679;-64
2023/07/17 00:14:32;;;;;;;4.57;3.73;;;;;;;;;;5079230;28;21291;-65
2023/07/17 00:17:00;;;;;;;5.30;4.00;;;;;;;;;;5076846;28;21254;-64
2023/07/17 00:19:28;;;;;;;7.90;4.07;;;;;;;;;;5079697;28;20690;-64
2023/07/17 00:21:58;;;;;;;4.70;3.80;;;;;;;;;;5081815;28;21271;-64
2023/07/17 00:24:26;;;;;;;5.60;4.13;;;;;;;;;;5080718;28;20697;-65
2023/07/17 00:26:54;;;;;;;6.73;4.67;;;;;;;;;;5081499;28;20664;-65
2023/07/17 00:29:24;;;;;;;6.60;4.50;;;;;;;;;;5062403;28;21039;-65
2023/07/17 00:31:53;;;;;;;6.17;4.20;;;;;;;;;;5081239;28;20633;-64
2023/07/17 00:34:21;;;;;;;4.77;4.47;;;;;;;;;;5080729;28;20695;-65
2023/07/17 00:36:50;;;;;;;4.83;3.60;;;;;;;;;;5081868;28;20626;-66
2023/07/17 00:39:20;;;;;;;7.47;3.80;;;;;;;;;;5080534;28;20622;-65
2023/07/17 00:41:48;;;;;;;4.50;4.10;;;;;;;;;;5081236;28;20658;-65
2023/07/17 00:44:16;;;;;;;5.43;4.10;;;;;;;;;;5081014;28;21199;-65
2023/07/17 00:46:44;;;;;;;8.13;4.27;;;;;;;;;;5081804;28;20710;-66
2023/07/17 00:49:12;;;;;;;4.90;4.00;;;;;;;;;;5080808;28;20622;-65
2023/07/17 00:51:41;;;;;;;5.70;3.90;;;;;;;;;;5081112;28;20620;-65
2023/07/17 00:54:10;;;;;;;5.83;4.40;;;;;;;;;;5080620;28;20634;-65
2023/07/17 00:56:39;;;;;;;4.10;3.20;;;;;;;;;;5081619;28;20622;-64
2023/07/17 00:59:07;;;;;;;4.00;3.70;;;;;;;;;;5081332;28;20718;-65
2023/07/17 01:01:35;;;;;;;5.40;4.43;;;;;;;;;;5076699;28;20632;-68
2023/07/17 01:04:07;;;;;;;5.17;4.00;;;;;;;;;;5072927;28;20634;-68
2023/07/17 01:06:38;;;;;;;6.20;4.10;;;;;;;;;;5072869;28;20590;-68
2023/07/17 01:09:06;;;;;;;3.93;3.63;;;;;;;;;;5074040;28;20605;-68
2023/07/17 01:11:34;;;;;;;4.73;3.97;;;;;;;;;;5073769;28;21231;-68
2023/07/17 01:14:04;;;;;;;4.57;3.70;;;;;;;;;;5073997;28;20590;-68
2023/07/17 01:16:32;;;;;;;4.37;3.83;;;;;;;;;;5073996;28;20950;-68
2023/07/17 01:18:59;;;;;;;4.80;3.87;;;;;;;;;;5073728;28;20629;-68
2023/07/17 01:21:29;;;;;;;5.00;4.20;;;;;;;;;;5074007;28;20653;-68
2023/07/17 01:23:59;;;;;;;5.03;4.53;;;;;;;;;;5073708;28;20602;-68
2023/07/17 01:26:27;;;;;;;7.20;4.23;;;;;;;;;;5073673;28;20626;-68
2023/07/17 01:28:55;;;;;;;5.70;5.13;;;;;;;;;;5073384;28;20626;-68
2023/07/17 01:31:23;;;;;;;5.07;4.10;;;;;;;;;;5073921;28;20626;-68
2023/07/17 01:33:51;;;;;;;7.07;4.20;;;;;;;;;;5072583;28;20629;-68
2023/07/17 01:36:19;;;;;;;5.83;5.23;;;;;;;;;;5072601;28;20677;-68
2023/07/17 01:38:47;;;;;;;4.47;4.03;;;;;;;;;;5072451;28;21164;-68
2023/07/17 01:41:17;;;;;;;4.87;4.47;;;;;;;;;;5073241;28;20668;-68
2023/07/17 01:43:45;;;;;;;4.93;4.43;;;;;;;;;;5072642;28;20626;-67
2023/07/17 01:46:13;;;;;;;5.33;4.23;;;;;;;;;;5073315;28;20626;-68
2023/07/17 01:48:42;;;;;;;6.37;3.83;;;;;;;;;;5073009;28;20597;-68
2023/07/17 01:51:10;;;;;;;5.47;3.87;;;;;;;;;;5073091;28;20625;-68
2023/07/17 01:53:38;;;;;;;7.27;3.90;;;;;;;;;;5072262;28;20592;-68
2023/07/17 01:56:06;;;;;;;7.50;4.50;;;;;;;;;;5072945;28;20626;-68
2023/07/17 01:58:36;;;;;;;4.90;3.87;;;;;;;;;;5072508;28;20628;-68
2023/07/17 02:01:04;;;;;;;7.13;3.80;;;;;;;;;;5072278;28;20668;-67
2023/07/17 02:03:34;;;;;;;4.57;4.17;;;;;;;;;;5071307;28;21261;-68
2023/07/17 02:06:02;;;;;;;5.87;4.67;;;;;;;;;;5070504;28;20614;-68
2023/07/17 02:08:30;;;;;;;4.50;4.10;;;;;;;;;;5072272;28;20622;-68
2023/07/17 02:10:58;;;;;;;4.30;4.00;;;;;;;;;;5072112;28;20654;-68
2023/07/17 02:13:27;;;;;;;7.93;4.97;;;;;;;;;;5072400;28;20655;-68
2023/07/17 02:15:56;;;;;;;5.63;4.00;;;;;;;;;;5072611;28;20631;-68
2023/07/17 02:18:25;;;;;;;4.13;3.73;;;;;;;;;;5072411;28;20622;-68
2023/07/17 02:20:53;;;;;;;6.80;4.63;;;;;;;;;;5072605;28;20632;-68
2023/07/17 02:23:21;;;;;;;4.80;4.40;;;;;;;;;;5072814;28;20610;-68
2023/07/17 02:25:49;;;;;;;5.20;3.60;;;;;;;;;;5072139;28;20636;-68
2023/07/17 02:28:18;;;;;;;7.10;3.80;;;;;;;;;;5070969;28;20618;-68
2023/07/17 02:30:46;;;;;;;8.23;4.10;;;;;;;;;;5067317;28;20645;-68
2023/07/17 02:33:15;;;;;;;5.47;4.77;;;;;;;;;;5072483;28;20625;-67
2023/07/17 02:35:44;;;;;;;6.40;4.50;;;;;;;;;;5071930;28;21192;-67
2023/07/17 02:38:12;;;;;;;4.47;3.80;;;;;;;;;;5072742;28;20642;-68
2023/07/17 02:40:40;;;;;;;5.87;4.50;;;;;;;;;;5071594;28;20627;-68
2023/07/17 02:43:09;;;;;;;7.17;4.93;;;;;;;;;;5070380;28;20604;-68
2023/07/17 02:45:38;;;;;;;5.03;4.43;;;;;;;;;;5071757;28;20626;-68
2023/07/17 02:48:06;;;;;;;4.40;4.00;;;;;;;;;;5070940;28;20597;-68
2023/07/17 02:50:35;;;;;;;7.20;4.30;;;;;;;;;;5070215;28;20626;-69
2023/07/17 02:53:03;;;;;;;5.83;4.47;;;;;;;;;;5072095;28;20600;-68
2023/07/17 02:55:31;;;;;;;4.53;4.00;;;;;;;;;;5071601;28;20633;-68
2023/07/17 02:57:59;;;;;;;5.77;4.37;;;;;;;;;;5053464;28;20613;-68
2023/07/17 03:00:27;;;;;;;6.80;4.73;;;;;;;;;;5071826;28;20626;-68
2023/07/17 03:02:55;;;;;;;6.30;4.63;;;;;;;;;;5070309;28;20650;-68
2023/07/17 03:05:23;;;;;;;4.90;4.40;;;;;;;;;;5070682;28;20614;-68
2023/07/17 03:07:54;;;;;;;5.17;4.67;;;;;;;;;;5070975;28;20610;-68
2023/07/17 03:10:22;;;;;;;5.93;4.77;;;;;;;;;;5068754;28;21155;-68
2023/07/17 03:12:50;;;;;;;6.33;4.37;;;;;;;;;;5067926;28;20606;-68
2023/07/17 03:15:18;;;;;;;10.77;5.00;;;;;;;;;;5071707;28;20613;-68
2023/07/17 03:17:46;;;;;;;7.20;4.30;;;;;;;;;;5071241;28;20614;-68
2023/07/17 03:20:15;;;;;;;5.17;3.90;;;;;;;;;;5071604;28;20609;-68
2023/07/17 03:22:43;;;;;;;8.50;4.17;;;;;;;;;;5070960;28;20661;-68
2023/07/17 03:25:12;;;;;;;6.10;4.37;;;;;;;;;;5071789;28;20596;-68
2023/07/17 03:27:40;;;;;;;5.93;4.13;;;;;;;;;;5070790;28;20630;-68
2023/07/17 03:30:09;;;;;;;6.13;4.60;;;;;;;;;;5069886;28;21199;-68
2023/07/17 03:32:38;;;;;;;7.90;5.10;;;;;;;;;;5069629;28;20987;-68
2023/07/17 03:35:07;;;;;;;6.70;5.17;;;;;;;;;;5071141;28;20605;-68
2023/07/17 03:37:35;;;;;;;6.13;4.20;;;;;;;;;;5070873;28;20637;-68
2023/07/17 03:40:05;;;;;;;6.73;4.40;;;;;;;;;;5069177;28;20636;-68
2023/07/17 03:42:34;;;;;;;6.00;4.50;;;;;;;;;;5069542;28;20662;-68
2023/07/17 03:45:02;;;;;;;10.03;4.40;;;;;;;;;;5070624;28;20597;-68
2023/07/17 03:47:34;;;;;;;8.87;4.33;;;;;;;;;;5071135;28;20611;-68
2023/07/17 03:50:02;;;;;;;6.33;5.00;;;;;;;;;;5070253;28;20626;-68
2023/07/17 03:52:31;;;;;;;7.70;4.83;;;;;;;;;;5069504;28;20930;-68
2023/07/17 03:54:59;;;;;;;4.80;4.40;;;;;;;;;;5070439;28;20600;-68
2023/07/17 03:57:27;;;;;;;5.90;4.47;;;;;;;;;;5069928;28;20735;-67
2023/07/17 03:59:57;;;;;;;5.37;4.93;;;;;;;;;;5069665;28;20578;-68
2023/07/17 04:02:40;;;;;;;5.80;4.80;;;;;;;;;;5066385;28;21198;-68
2023/07/17 04:05:12;;;;;;;10.70;5.37;;;;;;;;;;5067576;28;20978;-68
2023/07/17 04:07:41;;;;;;;8.30;5.63;;;;;;;;;;5071256;28;20604;-68
2023/07/17 04:10:10;;;;;;;5.73;4.77;;;;;;;;;;5067347;28;20650;-68
2023/07/17 04:12:38;;;;;;;5.70;4.70;;;;;;;;;;5058891;28;20597;-68
2023/07/17 04:15:08;;;;;;;6.97;6.03;;;;;;;;;;5064700;28;20604;-67
2023/07/17 04:17:37;;;;;;;5.00;4.60;;;;;;;;;;5070507;28;21163;-68
2023/07/17 04:20:08;;;;;;;5.50;4.90;;;;;;;;;;5070073;28;20601;-68
2023/07/17 04:22:36;;;;;;;8.90;5.20;;;;;;;;;;5069671;28;20632;-68
2023/07/17 04:25:05;;;;;;;6.93;5.13;;;;;;;;;;5068841;28;20604;-68
2023/07/17 04:27:34;;;;;;;6.10;4.60;;;;;;;;;;5070788;28;20627;-68
2023/07/17 04:30:03;;;;;;;8.27;6.20;;;;;;;;;;5068093;28;20687;-68
2023/07/17 04:32:35;;;;;;;6.97;5.53;;;;;;;;;;5065671;28;20595;-68
2023/07/17 04:35:03;;;;;;;8.77;5.70;;;;;;;;;;5072357;28;20602;-68
2023/07/17 04:37:31;;;;;;;5.83;5.10;;;;;;;;;;5074694;28;20615;-68
2023/07/17 04:39:59;;;;;;;6.73;4.87;;;;;;;;;;5073979;28;20606;-68
2023/07/17 04:42:28;;;;;;;7.50;5.40;;;;;;;;;;5073240;28;20633;-68
2023/07/17 04:44:56;;;;;;;12.67;5.53;;;;;;;;;;5073216;28;20618;-68
2023/07/17 04:47:24;;;;;;;5.40;4.90;;;;;;;;;;5073627;28;20679;-68
2023/07/17 04:49:55;;;;;;;5.00;4.50;;;;;;;;;;5073107;28;20597;-68
2023/07/17 04:52:25;;;;;;;6.40;5.73;;;;;;;;;;5072505;28;20606;-68
2023/07/17 04:54:55;;;;;;;5.93;5.37;;;;;;;;;;5072535;28;20561;-68
2023/07/17 04:57:23;;;;;;;6.50;4.60;;;;;;;;;;5054288;28;20611;-68
2023/07/17 04:59:52;;;;;;;7.83;5.07;;;;;;;;;;5058109;28;21002;-68
2023/07/17 05:02:20;;;;;;;8.80;6.17;;;;;;;;;;5072957;28;20730;-68
2023/07/17 05:04:48;;;;;;;10.63;4.53;;;;;;;;;;5071944;28;20611;-68
2023/07/17 05:07:18;;;;;;;10.53;4.63;;;;;;;;;;5071719;28;20604;-68
2023/07/17 05:09:46;;;;;;;7.53;4.90;;;;;;;;;;5072488;28;20622;-68
2023/07/17 05:12:14;;;;;;;7.17;5.23;;;;;;;;;;5067682;28;20630;-68
2023/07/17 05:14:45;;;;;;;10.60;5.30;;;;;;;;;;5065732;28;20594;-68
2023/07/17 05:17:13;;;;;;;11.10;5.30;;;;;;;;;;5068953;28;20641;-68
2023/07/17 05:19:42;;;;;;;5.83;4.53;;;;;;;;;;5072957;28;20618;-68
2023/07/17 05:22:10;;;;;;;6.33;4.80;;;;;;;;;;5071023;28;21233;-68
2023/07/17 05:24:41;;;;;;;6.30;4.87;;;;;;;;;;5070956;28;20628;-69
2023/07/17 05:27:10;;;;;;;7.17;4.77;;;;;;;;;;5071122;28;20626;-68
2023/07/17 05:29:38;;;;;;;10.60;5.40;;;;;;;;;;5066623;28;20618;-68
2023/07/17 05:32:07;;;;;;;8.73;5.37;;;;;;;;;;5072646;28;20634;-68
2023/07/17 05:34:35;;;;;;;9.80;5.63;;;;;;;;;;5070564;28;20976;-68
2023/07/17 05:37:03;;;;;;;8.10;4.80;;;;;;;;;;5072827;28;20626;-69
2023/07/17 05:39:32;;;;;;;6.63;5.93;;;;;;;;;;5074297;28;20639;-64
2023/07/17 05:42:02;;;;;;;5.30;4.80;;;;;;;;;;5056734;28;20671;-63
2023/07/17 05:44:30;;;;;;;6.03;4.33;;;;;;;;;;5073188;28;20983;-64
2023/07/17 05:47:00;;;;;;;9.97;6.20;;;;;;;;;;5071233;28;20626;-65
2023/07/17 05:49:29;;;;;;;7.87;5.00;;;;;;;;;;5070419;28;21252;-64
2023/07/17 05:51:57;;;;;;;6.33;4.60;;;;;;;;;;5072051;28;20615;-70
2023/07/17 05:54:26;;;;;;;4.97;4.00;;;;;;;;;;5072476;28;20691;-68
2023/07/17 05:56:54;;;;;;;7.57;3.93;;;;;;;;;;5070078;28;20626;-69
2023/07/17 05:59:24;;;;;;;6.40;4.90;;;;;;;;;;5071119;28;20653;-69
2023/07/17 06:01:53;;;;;;;5.67;4.27;;;;;;;;;;5072598;28;20594;-69
2023/07/17 06:04:23;;;;;;;5.50;3.80;;;;;;;;;;5049951;28;21208;-69
2023/07/17 06:06:51;;;;;;;5.57;4.70;;;;;;;;;;5052506;28;20660;-69
2023/07/17 06:09:20;;;;;;;9.10;4.93;;;;;;;;;;5051615;28;20626;-69
2023/07/17 06:11:48;;;;;;;5.67;4.20;;;;;;;;;;5051915;28;20666;-69
2023/07/17 06:14:17;;;;;;;7.17;4.50;;;;;;;;;;5053223;28;20929;-69
2023/07/17 06:16:46;;;;;;;5.53;4.20;;;;;;;;;;5052392;28;20621;-68
2023/07/17 06:19:14;;;;;;;10.37;4.90;;;;;;;;;;5053023;28;20668;-68
2023/07/17 06:21:43;;;;;;;8.00;4.27;;;;;;;;;;5068144;28;21049;-69
2023/07/17 06:24:11;;;;;;;5.80;4.70;;;;;;;;;;5073926;28;20714;-69
2023/07/17 06:26:39;;;;;;;7.13;4.60;;;;;;;;;;5073926;28;20626;-69
2023/07/17 06:29:09;;;;;;;9.80;4.70;;;;;;;;;;5073125;28;20595;-68
2023/07/17 06:31:37;;;;;;;8.97;4.57;;;;;;;;;;5071955;28;21206;-69
2023/07/17 06:34:07;;;;;;;8.90;4.93;;;;;;;;;;5071907;28;20610;-69
2023/07/17 06:36:35;;;;;;;6.03;3.93;;;;;;;;;;5073307;28;21190;-70
2023/07/17 06:39:03;;;;;;;7.27;4.57;;;;;;;;;;5071806;28;20605;-70
2023/07/17 06:41:31;;;;;;;5.50;4.33;;;;;;;;;;5072139;28;21179;-69
2023/07/17 06:44:00;;;;;;;7.73;4.40;;;;;;;;;;5072169;28;20656;-69
2023/07/17 06:46:28;;;;;;;4.93;3.90;;;;;;;;;;5072519;28;20610;-69
2023/07/17 06:48:56;;;;;;;9.87;4.93;;;;;;;;;;5071832;28;20619;-70
2023/07/17 06:51:25;;;;;;;6.57;4.40;;;;;;;;;;5072634;28;20614;-69
2023/07/17 06:53:54;;;;;;;5.13;4.27;;;;;;;;;;5072165;28;20612;-69
2023/07/17 06:56:22;;;;;;;5.97;4.90;;;;;;;;;;5071375;28;20687;-69
2023/07/17 06:58:50;;;;;;;6.30;4.87;;;;;;;;;;5071614;28;20664;-69
2023/07/17 07:01:18;;;;;;;8.17;5.00;;;;;;;;;;5071050;28;20672;-70
2023/07/17 07:03:47;;;;;;;7.07;4.50;;;;;;;;;;5065631;28;20659;-69
2023/07/17 07:06:15;;;;;;;8.80;4.60;;;;;;;;;;5061469;28;20636;-68
2023/07/17 07:08:44;;;;;;;6.37;5.47;;;;;;;;;;5069474;28;20618;-70
2023/07/17 07:11:13;;;;;;;6.17;4.67;;;;;;;;;;5071531;28;20673;-69
2023/07/17 07:13:42;;;;;;;6.50;5.40;;;;;;;;;;5072366;28;20610;-68
2023/07/17 07:16:10;;;;;;;7.10;5.67;;;;;;;;;;5070657;28;21180;-68
2023/07/17 07:18:38;;;;;;;8.60;5.23;;;;;;;;;;5067383;28;20992;-68
2023/07/17 07:21:06;;;;;;;7.67;4.80;;;;;;;;;;5070700;28;21027;-68
2023/07/17 07:23:35;;;;;;;11.53;5.20;;;;;;;;;;5070910;28;21240;-69
2023/07/17 07:26:04;;;;;;;4.50;4.10;;;;;;;;;;5070752;28;20618;-69
2023/07/17 07:28:33;;;;;;;6.33;4.40;;;;;;;;;;5071626;28;20626;-69
2023/07/17 07:31:02;;;;;;;7.53;4.60;;;;;;;;;;5071127;28;21201;-70
2023/07/17 07:33:30;;;;;;;4.67;4.20;;;;;;;;;;5071875;28;20663;-70
2023/07/17 07:35:58;;;;;;;5.90;4.27;;;;;;;;;;5070043;28;20995;-69
2023/07/17 07:38:26;;;;;;;5.60;4.40;;;;;;;;;;5071338;28;20708;-70
2023/07/17 07:40:55;;;;;;;6.23;4.53;;;;;;;;;;5071043;28;20606;-70
2023/07/17 07:43:24;;;;;;;5.10;4.60;;;;;;;;;;5071366;28;20663;-70
2023/07/17 07:45:52;;;;;;;5.20;4.60;;;;;;;;;;5070519;28;21176;-70
2023/07/17 07:48:21;;;;;;;7.43;4.17;;;;;;;;;;5071440;28;20602;-69
2023/07/17 07:50:49;;;;;;;4.60;4.23;;;;;;;;;;5070614;28;20619;-70
2023/07/17 07:53:17;;;;;;;6.27;5.10;;;;;;;;;;5071291;28;20622;-69
2023/07/17 07:55:45;;;;;;;7.80;4.87;;;;;;;;;;5070809;28;20608;-69
2023/07/17 07:58:13;;;;;;;4.97;4.57;;;;;;;;;;5069179;28;20770;-69
2023/07/17 08:00:43;;;;;;;5.47;4.97;;;;;;;;;;5069500;28;20610;-66
2023/07/17 08:03:11;;;;;;;6.67;5.40;;;;;;;;;;5070432;28;20624;-67
2023/07/17 08:05:39;;;;;;;7.20;4.57;;;;;;;;;;5069966;28;20618;-66
2023/07/17 08:08:07;;;;;;;7.27;5.17;;;;;;;;;;5070141;28;20630;-65
2023/07/17 08:10:37;;;;;;;4.90;4.50;;;;;;;;;;5070133;28;20642;-67
2023/07/17 08:13:05;;;;;;;6.33;4.47;;;;;;;;;;5070311;28;20711;-67
2023/07/17 08:15:34;;;;;;;7.33;4.17;;;;;;;;;;5068570;28;21009;-66
2023/07/17 08:18:03;;;;;;;5.00;4.50;;;;;;;;;;5070843;28;21159;-67
2023/07/17 08:20:31;;;;;;;5.17;4.67;;;;;;;;;;5070464;28;21210;-66
2023/07/17 08:22:59;;;;;;;13.33;5.07;;;;;;;;;;5069211;28;20667;-67
2023/07/17 08:25:28;;;;;;;9.40;5.50;;;;;;;;;;5071037;28;20664;-66
2023/07/17 08:27:56;;;;;;;6.47;5.17;;;;;;;;;;5070865;28;21219;-67
2023/07/17 08:30:24;;;;;;;18.07;9.47;;;;;;;;;;5070938;28;20632;-67
2023/07/17 08:32:52;;;;;;;6.40;5.73;;;;;;;;;;5070954;28;20616;-67
2023/07/17 08:35:22;;;;;;;9.73;6.73;;;;;;;;;;5071348;28;20618;-66
2023/07/17 08:37:50;;;;;;;7.70;5.70;;;;;;;;;;5070464;28;20953;-67
2023/07/17 08:40:18;;;;;;;6.40;5.20;;;;;;;;;;5071097;28;20640;-67
2023/07/17 08:42:46;;;;;;;5.87;4.87;;;;;;;;;;5070615;28;20614;-66
2023/07/17 08:45:15;;;;;;;6.83;5.90;;;;;;;;;;5070211;28;20654;-67
2023/07/17 08:47:43;;;;;;;5.77;5.40;;;;;;;;;;5070468;28;20690;-66
2023/07/17 08:50:13;;;;;;;9.60;5.33;;;;;;;;;;5071024;28;21337;-66
2023/07/17 08:52:43;;;;;;;6.20;5.20;;;;;;;;;;5071550;28;20976;-67
2023/07/17 08:55:11;;;;;;;7.10;6.20;;;;;;;;;;5070219;28;20588;-65
2023/07/17 08:57:40;;;;;;;7.27;5.67;;;;;;;;;;5071498;28;20648;-66
2023/07/17 09:00:15;;;;;;;10.90;6.60;;;;;;;;;;5071047;28;20588;-71
2023/07/17 09:02:43;;;;;;;5.33;4.77;;;;;;;;;;5070674;28;20984;-70
2023/07/17 09:05:11;;;;;;;6.50;5.60;;;;;;;;;;5060254;28;20663;-70
2023/07/17 09:07:39;;;;;;;11.90;6.13;;;;;;;;;;5050614;28;20609;-70
2023/07/17 09:10:20;;;;;;;6.17;5.67;;;;;;;;;;5050968;28;20643;-70
2023/07/17 09:12:52;;;;;;;6.23;5.70;;;;;;;;;;5070380;28;20819;-70
2023/07/17 09:15:20;;;;;;;8.93;5.67;;;;;;;;;;5064909;28;20603;-69
2023/07/17 09:17:48;;;;;;;6.50;5.87;;;;;;;;;;5052077;28;20649;-70
2023/07/17 09:20:17;;;;;;;8.43;5.90;;;;;;;;;;5050479;28;20625;-69
2023/07/17 09:22:46;;;;;;;7.13;6.43;;;;;;;;;;5053090;28;20603;-64
2023/07/17 09:25:14;;;;;;;7.20;6.50;;;;;;;;;;5055106;28;20655;-67
2023/07/17 09:27:47;;;;;;;6.17;5.50;;;;;;;;;;5055965;28;20629;-64
2023/07/17 09:30:16;;;;;;;6.37;5.53;;;;;;;;;;5070333;28;20602;-64
2023/07/17 09:32:45;;;;;;;6.10;5.80;;;;;;;;;;5075026;28;20609;-68
2023/07/17 09:35:15;;;;;;;6.80;6.17;;;;;;;;;;5073393;28;20610;-69
2023/07/17 09:37:44;;;;;;;6.60;6.00;;;;;;;;;;5075557;28;20868;-70
2023/07/17 09:40:13;;;;;;;6.03;5.63;;;;;;;;;;5073252;28;20605;-71
2023/07/17 09:42:42;;;;;;;9.13;5.83;;;;;;;;;;5074390;28;21205;-71
2023/07/17 09:45:12;;;;;;;6.47;5.87;;;;;;;;;;5074232;28;20664;-71
2023/07/17 09:47:41;;;;;;;7.50;6.00;;;;;;;;;;5074788;28;20614;-71
2023/07/17 09:50:09;;;;;;;8.70;6.30;;;;;;;;;;5065142;28;21194;-71
2023/07/17 09:52:38;;;;;;;8.43;6.67;;;;;;;;;;5052704;28;20619;-72
2023/07/17 09:55:07;;;;;;;8.30;6.13;;;;;;;;;;5054238;28;20607;-69
2023/07/17 09:57:36;;;;;;;6.70;6.20;;;;;;;;;;5054289;28;20643;-71
2023/07/17 10:00:11;;;;;;;6.73;6.33;;;;;;;;;;5054193;28;21197;-70
2023/07/17 10:02:42;;;;;;;5.97;5.43;;;;;;;;;;5070673;28;20609;-72
2023/07/17 10:05:10;;;;;;;8.93;6.30;;;;;;;;;;5072698;28;20629;-71
2023/07/17 10:07:39;;;;;;;6.80;6.20;;;;;;;;;;5073033;28;20617;-71
2023/07/17 10:10:09;;;;;;;7.63;6.93;;;;;;;;;;5073456;28;20642;-71
2023/07/17 10:12:39;;;;;;;6.83;6.33;;;;;;;;;;5066725;28;20638;-71
2023/07/17 10:15:08;;;;;;;6.73;6.27;;;;;;;;;;5072586;28;20607;-71
2023/07/17 10:17:37;;;;;;;7.73;5.90;;;;;;;;;;5071712;28;20610;-70
2023/07/17 10:20:08;;;;;;;7.03;6.53;;;;;;;;;;5073799;28;20652;-71
2023/07/17 10:22:38;;;;;;;6.50;6.00;;;;;;;;;;5071531;28;20680;-70
2023/07/17 10:25:10;;;;;;;6.67;6.00;;;;;;;;;;5072836;28;20668;-71
2023/07/17 10:27:39;;;;;;;6.77;6.27;;;;;;;;;;5072629;28;20589;-71
2023/07/17 10:30:24;;;;;;;6.73;5.87;;;;;;;;;;5073810;28;20614;-69
2023/07/17 10:33:05;;;;;;;6.30;5.90;;;;;;;;;;5072625;28;20715;-70
2023/07/17 10:35:44;;;;;;;8.37;6.60;;;;;;;;;;5072950;28;20600;-70
2023/07/17 10:38:13;;;;;;;6.40;5.90;;;;;;;;;;5073212;28;20585;-70
2023/07/17 10:40:42;;;;;;;8.33;6.77;;;;;;;;;;5071729;28;20667;-70
2023/07/17 10:43:14;;;;;;;7.03;6.23;;;;;;;;;;5073677;28;20606;-70
2023/07/17 10:45:42;;;;;;;6.80;6.27;;;;;;;;;;5073158;28;20985;-69
2023/07/17 10:48:10;;;;;;;7.40;6.40;;;;;;;;;;5072678;28;20622;-70
2023/07/17 10:50:40;;;;;;;7.10;6.50;;;;;;;;;;5072557;28;21207;-70
2023/07/17 10:53:09;;;;;;;6.20;5.90;;;;;;;;;;5072690;28;20591;-71
2023/07/17 10:55:37;;;;;;;7.03;6.43;;;;;;;;;;5072616;28;20614;-71
2023/07/17 10:58:06;;;;;;;8.07;6.70;;;;;;;;;;5072950;28;20638;-71
2023/07/17 11:00:34;;;;;;;7.00;6.30;;;;;;;;;;5072828;28;20622;-69
2023/07/17 11:03:03;;;;;;;6.10;5.60;;;;;;;;;;5070751;28;20616;-69
2023/07/17 11:05:31;;;;;;;6.23;5.70;;;;;;;;;;5065660;28;20661;-70
2023/07/17 11:08:00;;;;;;;6.20;5.80;;;;;;;;;;5062439;28;20625;-71
2023/07/17 11:10:28;;;;;;;6.37;5.60;;;;;;;;;;5071299;28;20650;-71
2023/07/17 11:13:01;;;;;;;6.20;5.63;;;;;;;;;;5072205;28;20618;-71
2023/07/17 11:15:33;;;;;;;6.87;6.27;;;;;;;;;;5071641;28;20601;-71
2023/07/17 11:18:01;;;;;;;6.37;5.83;;;;;;;;;;5068889;28;20598;-71
2023/07/17 11:20:30;;;;;;;6.17;5.67;;;;;;;;;;5071528;28;20619;-70
2023/07/17 11:22:58;;;;;;;7.30;6.00;;;;;;;;;;5070557;28;20636;-70
2023/07/17 11:25:28;;;;;;;8.17;6.07;;;;;;;;;;5070185;28;20688;-70
2023/07/17 11:28:00;;;;;;;7.00;5.73;;;;;;;;;;5071340;28;20601;-71
2023/07/17 11:30:29;;;;;;;6.60;6.10;;;;;;;;;;5069194;28;20609;-71
2023/07/17 11:33:01;;;;;;;6.77;6.17;;;;;;;;;;5071508;28;20623;-70
2023/07/17 11:35:39;;;;;;;5.93;5.53;;;;;;;;;;5069122;28;20941;-71
2023/07/17 11:38:07;;;;;;;5.50;5.10;;;;;;;;;;5069025;28;20956;-71
2023/07/17 11:40:51;;;;;;;6.00;5.50;;;;;;;;;;5070703;28;21021;-70
2023/07/17 11:43:24;;;;;;;6.17;5.53;;;;;;;;;;5071217;28;20593;-68
2023/07/17 11:45:54;;;;;;;5.57;5.20;;;;;;;;;;5070593;28;20646;-69
2023/07/17 11:48:24;;;;;;;6.23;5.83;;;;;;;;;;5071233;28;20636;-68
2023/07/17 11:50:54;;;;;;;6.60;6.10;;;;;;;;;;5068763;28;20622;-65
2023/07/17 11:53:23;;;;;;;5.87;5.47;;;;;;;;;;5061235;28;20628;-65
2023/07/17 11:55:52;;;;;;;6.70;5.67;;;;;;;;;;5070949;28;20625;-66
2023/07/17 11:58:21;;;;;;;6.10;5.70;;;;;;;;;;5071067;28;20714;-66
2023/07/17 12:00:50;;;;;;;6.43;5.93;;;;;;;;;;5070179;28;20598;-65
2023/07/17 12:03:18;;;;;;;6.00;5.63;;;;;;;;;;5070218;28;20679;-65
2023/07/17 12:05:47;;;;;;;7.00;6.00;;;;;;;;;;5069911;28;20658;-65
2023/07/17 12:08:16;;;;;;;6.13;5.63;;;;;;;;;;5070000;28;20610;-66
2023/07/17 12:10:44;;;;;;;6.07;5.70;;;;;;;;;;5070708;28;20650;-67
2023/07/17 12:13:14;;;;;;;5.93;5.50;;;;;;;;;;5066075;28;20639;-66
2023/07/17 12:15:42;;;;;;;6.63;6.20;;;;;;;;;;5069847;28;20628;-66
2023/07/17 12:18:10;;;;;;;6.47;6.00;;;;;;;;;;5069777;28;20621;-66
2023/07/17 12:20:39;;;;;;;5.90;5.60;;;;;;;;;;5069614;28;20751;-67
2023/07/17 12:23:07;;;;;;;6.17;5.73;;;;;;;;;;5070496;28;20623;-68
2023/07/17 12:25:41;;;;;;;6.17;5.77;;;;;;;;;;5070833;28;20650;-67
2023/07/17 12:28:10;;;;;;;5.83;5.43;;;;;;;;;;5071159;28;20735;-68
2023/07/17 12:30:40;;;;;;;5.53;5.13;;;;;;;;;;5070629;28;20610;-66
2023/07/17 12:33:08;;;;;;;6.00;5.47;;;;;;;;;;5071859;28;20578;-67
2023/07/17 12:35:36;;;;;;;6.40;5.93;;;;;;;;;;5070676;28;20624;-67
2023/07/17 12:38:04;;;;;;;5.40;5.10;;;;;;;;;;5070953;28;20627;-70
2023/07/17 12:40:35;;;;;;;5.77;5.47;;;;;;;;;;5070917;28;20671;-70
2023/07/17 12:43:03;;;;;;;5.93;5.57;;;;;;;;;;5070935;28;20586;-69
2023/07/17 12:45:31;;;;;;;6.17;5.67;;;;;;;;;;5070315;28;21198;-71
2023/07/17 12:48:01;;;;;;;5.63;5.33;;;;;;;;;;5069504;28;20614;-70
2023/07/17 12:50:29;;;;;;;5.23;4.97;;;;;;;;;;5071143;28;20617;-70
2023/07/17 12:52:57;;;;;;;6.03;5.53;;;;;;;;;;5070644;28;20610;-71
2023/07/17 12:55:26;;;;;;;5.33;5.03;;;;;;;;;;5057980;28;20615;-69
2023/07/17 12:57:54;;;;;;;5.50;5.20;;;;;;;;;;5067055;28;20654;-71
2023/07/17 13:00:22;;;;;;;5.60;5.30;;;;;;;;;;5071952;28;20618;-70
2023/07/17 13:02:50;;;;;;;5.60;5.27;;;;;;;;;;5072193;28;20622;-70
2023/07/17 13:05:20;;;;;;;5.70;5.30;;;;;;;;;;5072278;28;20626;-66
2023/07/17 13:07:48;;;;;;;5.73;5.43;;;;;;;;;;5062096;28;20736;-65
2023/07/17 13:10:17;;;;;;;5.47;4.93;;;;;;;;;;5073465;28;20638;-67
2023/07/17 13:12:45;;;;;;;6.00;5.40;;;;;;;;;;5074037;28;20610;-68
2023/07/17 13:15:13;;;;;;;4.90;4.60;;;;;;;;;;5073208;28;20627;-66
2023/07/17 13:17:41;;;;;;;5.70;5.30;;;;;;;;;;5074525;28;20616;-66
2023/07/17 13:20:10;;;;;;;5.30;5.00;;;;;;;;;;5075000;28;20604;-65
2023/07/17 13:22:39;;;;;;;5.70;5.33;;;;;;;;;;5074104;28;20620;-65
2023/07/17 13:25:08;;;;;;;5.63;5.10;;;;;;;;;;5073808;28;20621;-66
2023/07/17 13:27:36;;;;;;;7.00;6.50;;;;;;;;;;5074028;28;20642;-66
2023/07/17 13:30:05;;;;;;;5.40;5.00;;;;;;;;;;5073873;28;20606;-65
2023/07/17 13:32:33;;;;;;;4.77;4.57;;;;;;;;;;5073979;28;21183;-67
2023/07/17 13:35:01;;;;;;;4.90;4.70;;;;;;;;;;5073747;28;20608;-65
2023/07/17 13:37:29;;;;;;;5.20;4.90;;;;;;;;;;5072707;28;20636;-66
2023/07/17 13:39:59;;;;;;;5.93;5.50;;;;;;;;;;5072112;28;20621;-65
2023/07/17 13:42:27;;;;;;;5.97;4.93;;;;;;;;;;5073283;28;21183;-65
2023/07/17 13:44:59;;;;;;;5.80;5.30;;;;;;;;;;5073287;28;21210;-65
2023/07/17 13:47:27;;;;;;;5.20;4.90;;;;;;;;;;5073800;28;20660;-66
2023/07/17 13:49:56;;;;;;;5.40;4.90;;;;;;;;;;5071712;28;20630;-71
2023/07/17 13:52:24;;;;;;;5.37;4.90;;;;;;;;;;5071692;28;21184;-71
2023/07/17 13:54:52;;;;;;;4.70;4.50;;;;;;;;;;5072303;28;20686;-71
2023/07/17 13:57:22;;;;;;;5.03;4.73;;;;;;;;;;5072472;28;20610;-70
2023/07/17 13:59:50;;;;;;;5.67;5.17;;;;;;;;;;5071936;28;20606;-71
2023/07/17 14:02:18;;;;;;;5.67;5.03;;;;;;;;;;5072385;28;21141;-72
2023/07/17 14:04:46;;;;;;;5.30;5.00;;;;;;;;;;5056008;28;20629;-71
2023/07/17 14:07:14;;;;;;;4.70;4.40;;;;;;;;;;5051890;28;21064;-71
2023/07/17 14:09:42;;;;;;;4.80;4.60;;;;;;;;;;5054552;28;20973;-72
2023/07/17 14:12:11;;;;;;;4.97;4.67;;;;;;;;;;5064277;28;20718;-68
2023/07/17 14:14:40;;;;;;;4.70;4.40;;;;;;;;;;5063722;28;20611;-70
2023/07/17 14:17:08;;;;;;;5.10;4.60;;;;;;;;;;5062073;28;20621;-71
2023/07/17 14:19:37;;;;;;;7.03;4.50;;;;;;;;;;5058640;28;20683;-71
2023/07/17 14:22:05;;;;;;;5.03;4.73;;;;;;;;;;5064637;28;21241;-70
2023/07/17 14:24:33;;;;;;;6.33;4.83;;;;;;;;;;5072053;28;20633;-71
2023/07/17 14:27:01;;;;;;;5.27;4.97;;;;;;;;;;5072522;28;20727;-70
2023/07/17 14:29:30;;;;;;;5.13;4.80;;;;;;;;;;5070605;28;20622;-69
2023/07/17 14:31:59;;;;;;;4.73;4.40;;;;;;;;;;5072849;28;20622;-70
2023/07/17 14:34:28;;;;;;;4.63;4.33;;;;;;;;;;5072687;28;20628;-70
2023/07/17 14:36:56;;;;;;;5.00;4.70;;;;;;;;;;5072915;28;20610;-71
2023/07/17 14:39:24;;;;;;;6.43;4.83;;;;;;;;;;5070765;28;20622;-70
2023/07/17 14:41:52;;;;;;;5.03;4.63;;;;;;;;;;5071348;28;21192;-69
2023/07/17 14:44:21;;;;;;;4.73;4.53;;;;;;;;;;5071796;28;20962;-69
2023/07/17 14:46:49;;;;;;;4.90;4.60;;;;;;;;;;5071602;28;20664;-70
2023/07/17 14:49:18;;;;;;;4.90;4.60;;;;;;;;;;5071839;28;21181;-69
2023/07/17 14:51:46;;;;;;;5.33;4.93;;;;;;;;;;5055446;28;20616;-68
2023/07/17 14:54:15;;;;;;;4.77;4.30;;;;;;;;;;5063663;28;20633;-68